sensor_id;sensor_type;location;lat;lon;timestamp;P1;durP1;ratioP1;P2;durP2;ratioP2
2972;SDS011;1496;51.404;7.232;2022-08-19T00:00:16;11.27;;;9.53;;
2972;SDS011;1496;51.404;7.232;2022-08-19T00:02:44;12.53;;;11.17;;
2972;SDS011;1496;51.404;7.232;2022-08-19T00:05:11;19.73;;;14.60;;
2972;SDS011;1496;51.404;7.232;2022-08-19T00:07:38;19.77;;;14.40;;
2972;SDS011;1496;51.404;7.232;2022-08-19T00:10:05;16.73;;;13.17;;
2972;SDS011;1496;51.404;7.232;2022-08-19T00:12:32;14.93;;;12.17;;
2972;SDS011;1496;51.404;7.232;2022-08-19T00:14:59;14.33;;;11.57;;
2972;SDS011;1496;51.404;7.232;2022-08-19T00:17:25;12.27;;;10.43;;
2972;SDS011;1496;51.404;7.232;2022-08-19T00:19:51;13.07;;;10.63;;
2972;SDS011;1496;51.404;7.232;2022-08-19T00:22:17;11.67;;;10.20;;
2972;SDS011;1496;51.404;7.232;2022-08-19T00:24:44;13.23;;;11.10;;
2972;SDS011;1496;51.404;7.232;2022-08-19T00:27:11;13.47;;;10.87;;
2972;SDS011;1496;51.404;7.232;2022-08-19T00:29:37;12.13;;;10.60;;
2972;SDS011;1496;51.404;7.232;2022-08-19T00:32:03;12.30;;;11.10;;
2972;SDS011;1496;51.404;7.232;2022-08-19T00:34:30;14.77;;;11.03;;
2972;SDS011;1496;51.404;7.232;2022-08-19T00:36:56;12.03;;;10.80;;
2972;SDS011;1496;51.404;7.232;2022-08-19T00:39:24;15.40;;;11.07;;
2972;SDS011;1496;51.404;7.232;2022-08-19T00:41:50;11.43;;;10.10;;
2972;SDS011;1496;51.404;7.232;2022-08-19T00:44:22;11.20;;;8.83;;
2972;SDS011;1496;51.404;7.232;2022-08-19T00:46:50;11.50;;;9.40;;
2972;SDS011;1496;51.404;7.232;2022-08-19T00:52:18;11.30;;;8.80;;
2972;SDS011;1496;51.404;7.232;2022-08-19T00:54:50;10.10;;;8.70;;
2972;SDS011;1496;51.404;7.232;2022-08-19T00:57:18;9.97;;;8.97;;
2972;SDS011;1496;51.404;7.232;2022-08-19T00:59:51;9.47;;;8.60;;
2972;SDS011;1496;51.404;7.232;2022-08-19T01:02:19;11.33;;;10.13;;
2972;SDS011;1496;51.404;7.232;2022-08-19T01:04:45;10.10;;;8.10;;
2972;SDS011;1496;51.404;7.232;2022-08-19T01:07:11;10.10;;;9.10;;
2972;SDS011;1496;51.404;7.232;2022-08-19T01:09:38;10.40;;;9.33;;
2972;SDS011;1496;51.404;7.232;2022-08-19T01:12:04;10.30;;;8.80;;
2972;SDS011;1496;51.404;7.232;2022-08-19T01:14:30;10.10;;;9.20;;
2972;SDS011;1496;51.404;7.232;2022-08-19T01:16:57;21.80;;;10.13;;
2972;SDS011;1496;51.404;7.232;2022-08-19T01:19:29;11.10;;;10.03;;
2972;SDS011;1496;51.404;7.232;2022-08-19T01:24:49;14.73;;;9.50;;
2972;SDS011;1496;51.404;7.232;2022-08-19T01:27:16;9.67;;;8.37;;
2972;SDS011;1496;51.404;7.232;2022-08-19T01:29:43;11.63;;;8.83;;
2972;SDS011;1496;51.404;7.232;2022-08-19T01:32:11;13.90;;;9.80;;
2972;SDS011;1496;51.404;7.232;2022-08-19T01:34:40;14.03;;;9.83;;
2972;SDS011;1496;51.404;7.232;2022-08-19T01:37:10;11.43;;;9.73;;
2972;SDS011;1496;51.404;7.232;2022-08-19T01:39:38;11.90;;;9.87;;
2972;SDS011;1496;51.404;7.232;2022-08-19T01:42:06;12.40;;;10.30;;
2972;SDS011;1496;51.404;7.232;2022-08-19T01:44:34;13.00;;;11.17;;
2972;SDS011;1496;51.404;7.232;2022-08-19T01:47:01;10.90;;;9.33;;
2972;SDS011;1496;51.404;7.232;2022-08-19T01:49:27;15.00;;;9.90;;
2972;SDS011;1496;51.404;7.232;2022-08-19T01:51:53;11.87;;;10.57;;
2972;SDS011;1496;51.404;7.232;2022-08-19T01:54:20;10.93;;;9.83;;
2972;SDS011;1496;51.404;7.232;2022-08-19T01:56:47;10.63;;;9.53;;
2972;SDS011;1496;51.404;7.232;2022-08-19T01:59:14;12.73;;;10.80;;
2972;SDS011;1496;51.404;7.232;2022-08-19T02:01:43;11.37;;;10.17;;
2972;SDS011;1496;51.404;7.232;2022-08-19T02:04:09;11.03;;;10.03;;
2972;SDS011;1496;51.404;7.232;2022-08-19T02:06:34;10.97;;;9.87;;
2972;SDS011;1496;51.404;7.232;2022-08-19T02:09:02;10.43;;;8.30;;
2972;SDS011;1496;51.404;7.232;2022-08-19T02:11:33;11.27;;;9.90;;
2972;SDS011;1496;51.404;7.232;2022-08-19T02:14:02;12.43;;;11.10;;
2972;SDS011;1496;51.404;7.232;2022-08-19T02:16:29;12.60;;;11.37;;
2972;SDS011;1496;51.404;7.232;2022-08-19T02:18:56;12.67;;;11.40;;
2972;SDS011;1496;51.404;7.232;2022-08-19T02:21:22;12.37;;;10.33;;
2972;SDS011;1496;51.404;7.232;2022-08-19T02:23:49;11.47;;;10.33;;
2972;SDS011;1496;51.404;7.232;2022-08-19T02:26:19;12.93;;;11.00;;
2972;SDS011;1496;51.404;7.232;2022-08-19T02:28:45;12.73;;;9.70;;
2972;SDS011;1496;51.404;7.232;2022-08-19T02:31:12;12.40;;;10.03;;
2972;SDS011;1496;51.404;7.232;2022-08-19T02:33:44;11.33;;;9.57;;
2972;SDS011;1496;51.404;7.232;2022-08-19T02:36:12;10.80;;;9.80;;
2972;SDS011;1496;51.404;7.232;2022-08-19T02:38:39;10.57;;;9.57;;
2972;SDS011;1496;51.404;7.232;2022-08-19T02:41:10;10.97;;;9.93;;
2972;SDS011;1496;51.404;7.232;2022-08-19T02:43:38;11.13;;;9.90;;
2972;SDS011;1496;51.404;7.232;2022-08-19T02:46:12;11.70;;;10.50;;
2972;SDS011;1496;51.404;7.232;2022-08-19T02:48:39;11.77;;;10.57;;
2972;SDS011;1496;51.404;7.232;2022-08-19T02:51:05;10.93;;;9.80;;
2972;SDS011;1496;51.404;7.232;2022-08-19T02:53:31;11.00;;;9.90;;
2972;SDS011;1496;51.404;7.232;2022-08-19T02:55:57;11.60;;;10.40;;
2972;SDS011;1496;51.404;7.232;2022-08-19T02:58:23;10.90;;;9.70;;
2972;SDS011;1496;51.404;7.232;2022-08-19T03:00:52;11.03;;;9.83;;
2972;SDS011;1496;51.404;7.232;2022-08-19T03:03:20;12.80;;;11.17;;
2972;SDS011;1496;51.404;7.232;2022-08-19T03:05:46;10.90;;;9.80;;
2972;SDS011;1496;51.404;7.232;2022-08-19T03:08:12;15.40;;;12.17;;
2972;SDS011;1496;51.404;7.232;2022-08-19T03:10:40;12.73;;;11.03;;
2972;SDS011;1496;51.404;7.232;2022-08-19T03:13:10;11.13;;;10.00;;
2972;SDS011;1496;51.404;7.232;2022-08-19T03:15:41;12.07;;;10.83;;
2972;SDS011;1496;51.404;7.232;2022-08-19T03:18:08;13.20;;;11.80;;
2972;SDS011;1496;51.404;7.232;2022-08-19T03:20:39;13.13;;;11.83;;
2972;SDS011;1496;51.404;7.232;2022-08-19T03:23:06;34.27;;;24.20;;
2972;SDS011;1496;51.404;7.232;2022-08-19T03:25:36;31.20;;;20.97;;
2972;SDS011;1496;51.404;7.232;2022-08-19T03:28:03;35.10;;;21.80;;
2972;SDS011;1496;51.404;7.232;2022-08-19T03:30:29;24.40;;;19.03;;
2972;SDS011;1496;51.404;7.232;2022-08-19T03:32:55;22.70;;;16.90;;
2972;SDS011;1496;51.404;7.232;2022-08-19T03:35:22;20.93;;;15.83;;
2972;SDS011;1496;51.404;7.232;2022-08-19T03:37:48;19.83;;;15.87;;
2972;SDS011;1496;51.404;7.232;2022-08-19T03:40:14;17.47;;;14.73;;
2972;SDS011;1496;51.404;7.232;2022-08-19T03:42:39;18.27;;;14.60;;
2972;SDS011;1496;51.404;7.232;2022-08-19T03:45:07;20.67;;;14.07;;
2972;SDS011;1496;51.404;7.232;2022-08-19T03:47:35;19.10;;;14.20;;
2972;SDS011;1496;51.404;7.232;2022-08-19T03:50:02;16.23;;;13.73;;
2972;SDS011;1496;51.404;7.232;2022-08-19T03:52:29;17.00;;;15.20;;
2972;SDS011;1496;51.404;7.232;2022-08-19T03:54:55;17.43;;;14.57;;
2972;SDS011;1496;51.404;7.232;2022-08-19T03:57:23;17.00;;;14.33;;
2972;SDS011;1496;51.404;7.232;2022-08-19T03:59:49;15.50;;;13.90;;
2972;SDS011;1496;51.404;7.232;2022-08-19T04:02:18;15.77;;;14.13;;
2972;SDS011;1496;51.404;7.232;2022-08-19T04:04:44;18.47;;;14.63;;
2972;SDS011;1496;51.404;7.232;2022-08-19T04:07:13;18.23;;;14.30;;
2972;SDS011;1496;51.404;7.232;2022-08-19T04:09:46;15.93;;;14.33;;
2972;SDS011;1496;51.404;7.232;2022-08-19T04:12:13;18.30;;;14.80;;
2972;SDS011;1496;51.404;7.232;2022-08-19T04:14:40;15.10;;;13.60;;
2972;SDS011;1496;51.404;7.232;2022-08-19T04:17:06;14.30;;;12.80;;
2972;SDS011;1496;51.404;7.232;2022-08-19T04:19:34;15.57;;;14.03;;
2972;SDS011;1496;51.404;7.232;2022-08-19T04:22:01;15.53;;;13.40;;
2972;SDS011;1496;51.404;7.232;2022-08-19T04:24:27;15.20;;;12.97;;
2972;SDS011;1496;51.404;7.232;2022-08-19T04:26:53;16.70;;;13.80;;
2972;SDS011;1496;51.404;7.232;2022-08-19T04:29:22;19.03;;;13.20;;
2972;SDS011;1496;51.404;7.232;2022-08-19T04:31:52;16.20;;;14.50;;
2972;SDS011;1496;51.404;7.232;2022-08-19T04:34:20;15.60;;;14.00;;
2972;SDS011;1496;51.404;7.232;2022-08-19T04:36:49;15.60;;;13.27;;
2972;SDS011;1496;51.404;7.232;2022-08-19T04:39:17;14.03;;;12.63;;
2972;SDS011;1496;51.404;7.232;2022-08-19T04:41:45;13.43;;;11.30;;
2972;SDS011;1496;51.404;7.232;2022-08-19T04:44:31;12.87;;;11.50;;
2972;SDS011;1496;51.404;7.232;2022-08-19T04:46:58;15.50;;;13.63;;
2972;SDS011;1496;51.404;7.232;2022-08-19T04:49:25;15.37;;;13.77;;
2972;SDS011;1496;51.404;7.232;2022-08-19T04:51:52;15.97;;;13.10;;
2972;SDS011;1496;51.404;7.232;2022-08-19T04:54:19;18.03;;;16.10;;
2972;SDS011;1496;51.404;7.232;2022-08-19T04:56:48;22.97;;;17.57;;
2972;SDS011;1496;51.404;7.232;2022-08-19T04:59:15;19.80;;;16.07;;
2972;SDS011;1496;51.404;7.232;2022-08-19T05:01:43;20.03;;;17.20;;
2972;SDS011;1496;51.404;7.232;2022-08-19T05:04:15;20.07;;;15.70;;
2972;SDS011;1496;51.404;7.232;2022-08-19T05:06:44;19.43;;;16.60;;
2972;SDS011;1496;51.404;7.232;2022-08-19T05:09:12;19.13;;;15.70;;
2972;SDS011;1496;51.404;7.232;2022-08-19T05:11:38;20.77;;;17.77;;
2972;SDS011;1496;51.404;7.232;2022-08-19T05:14:05;19.80;;;17.00;;
2972;SDS011;1496;51.404;7.232;2022-08-19T05:16:33;21.10;;;16.23;;
2972;SDS011;1496;51.404;7.232;2022-08-19T05:18:59;24.53;;;16.70;;
2972;SDS011;1496;51.404;7.232;2022-08-19T05:21:46;14.53;;;13.00;;
2972;SDS011;1496;51.404;7.232;2022-08-19T05:24:32;13.50;;;12.03;;
2972;SDS011;1496;51.404;7.232;2022-08-19T05:27:03;18.50;;;14.60;;
2972;SDS011;1496;51.404;7.232;2022-08-19T05:29:31;15.17;;;13.23;;
2972;SDS011;1496;51.404;7.232;2022-08-19T05:31:59;14.80;;;12.60;;
2972;SDS011;1496;51.404;7.232;2022-08-19T05:34:29;18.50;;;14.00;;
2972;SDS011;1496;51.404;7.232;2022-08-19T05:36:57;16.77;;;14.20;;
2972;SDS011;1496;51.404;7.232;2022-08-19T05:39:25;15.87;;;13.83;;
2972;SDS011;1496;51.404;7.232;2022-08-19T05:41:58;14.70;;;13.20;;
2972;SDS011;1496;51.404;7.232;2022-08-19T05:44:36;21.47;;;13.37;;
2972;SDS011;1496;51.404;7.232;2022-08-19T05:47:12;12.93;;;11.53;;
2972;SDS011;1496;51.404;7.232;2022-08-19T05:49:41;15.70;;;12.70;;
2972;SDS011;1496;51.404;7.232;2022-08-19T05:52:09;15.20;;;12.43;;
2972;SDS011;1496;51.404;7.232;2022-08-19T05:54:37;16.90;;;13.40;;
2972;SDS011;1496;51.404;7.232;2022-08-19T05:57:08;17.70;;;14.53;;
2972;SDS011;1496;51.404;7.232;2022-08-19T05:59:37;14.97;;;12.90;;
2972;SDS011;1496;51.404;7.232;2022-08-19T06:02:06;15.37;;;13.60;;
2972;SDS011;1496;51.404;7.232;2022-08-19T06:04:32;18.13;;;13.40;;
2972;SDS011;1496;51.404;7.232;2022-08-19T06:06:59;18.40;;;13.97;;
2972;SDS011;1496;51.404;7.232;2022-08-19T06:09:26;14.90;;;12.90;;
2972;SDS011;1496;51.404;7.232;2022-08-19T06:11:58;16.20;;;12.90;;
2972;SDS011;1496;51.404;7.232;2022-08-19T06:14:31;17.53;;;13.57;;
2972;SDS011;1496;51.404;7.232;2022-08-19T06:16:59;18.53;;;11.87;;
2972;SDS011;1496;51.404;7.232;2022-08-19T06:19:27;14.07;;;11.60;;
2972;SDS011;1496;51.404;7.232;2022-08-19T06:22:00;15.80;;;13.03;;
2972;SDS011;1496;51.404;7.232;2022-08-19T06:24:30;16.20;;;13.30;;
2972;SDS011;1496;51.404;7.232;2022-08-19T06:26:57;14.23;;;12.00;;
2972;SDS011;1496;51.404;7.232;2022-08-19T06:29:25;14.67;;;12.03;;
2972;SDS011;1496;51.404;7.232;2022-08-19T06:31:56;16.50;;;13.10;;
2972;SDS011;1496;51.404;7.232;2022-08-19T06:34:24;11.83;;;10.47;;
2972;SDS011;1496;51.404;7.232;2022-08-19T06:36:53;15.43;;;12.30;;
2972;SDS011;1496;51.404;7.232;2022-08-19T06:39:32;15.80;;;13.53;;
2972;SDS011;1496;51.404;7.232;2022-08-19T06:42:02;13.57;;;12.17;;
2972;SDS011;1496;51.404;7.232;2022-08-19T06:44:32;17.10;;;12.50;;
2972;SDS011;1496;51.404;7.232;2022-08-19T06:47:04;16.33;;;13.43;;
2972;SDS011;1496;51.404;7.232;2022-08-19T06:49:57;15.17;;;13.23;;
2972;SDS011;1496;51.404;7.232;2022-08-19T06:52:32;20.33;;;15.93;;
2972;SDS011;1496;51.404;7.232;2022-08-19T06:54:59;19.40;;;16.53;;
2972;SDS011;1496;51.404;7.232;2022-08-19T06:57:29;20.80;;;16.50;;
2972;SDS011;1496;51.404;7.232;2022-08-19T06:59:56;28.23;;;18.53;;
2972;SDS011;1496;51.404;7.232;2022-08-19T07:02:22;23.27;;;18.53;;
2972;SDS011;1496;51.404;7.232;2022-08-19T07:04:52;22.27;;;18.53;;
2972;SDS011;1496;51.404;7.232;2022-08-19T07:07:19;23.80;;;18.57;;
2972;SDS011;1496;51.404;7.232;2022-08-19T07:09:45;25.37;;;17.50;;
2972;SDS011;1496;51.404;7.232;2022-08-19T07:12:12;23.23;;;18.33;;
2972;SDS011;1496;51.404;7.232;2022-08-19T07:14:40;27.77;;;20.50;;
2972;SDS011;1496;51.404;7.232;2022-08-19T07:17:09;20.00;;;17.67;;
2972;SDS011;1496;51.404;7.232;2022-08-19T07:19:40;29.70;;;19.13;;
2972;SDS011;1496;51.404;7.232;2022-08-19T07:22:07;21.50;;;17.60;;
2972;SDS011;1496;51.404;7.232;2022-08-19T07:24:35;24.50;;;18.23;;
2972;SDS011;1496;51.404;7.232;2022-08-19T07:27:03;22.17;;;17.07;;
2972;SDS011;1496;51.404;7.232;2022-08-19T07:29:31;24.10;;;17.60;;
2972;SDS011;1496;51.404;7.232;2022-08-19T07:31:59;18.97;;;16.03;;
2972;SDS011;1496;51.404;7.232;2022-08-19T07:34:33;19.27;;;16.87;;
2972;SDS011;1496;51.404;7.232;2022-08-19T07:37:06;22.57;;;17.77;;
2972;SDS011;1496;51.404;7.232;2022-08-19T07:39:35;22.03;;;15.73;;
2972;SDS011;1496;51.404;7.232;2022-08-19T07:42:04;19.40;;;16.50;;
2972;SDS011;1496;51.404;7.232;2022-08-19T07:44:39;20.77;;;16.00;;
2972;SDS011;1496;51.404;7.232;2022-08-19T07:47:06;19.23;;;14.87;;
2972;SDS011;1496;51.404;7.232;2022-08-19T07:49:40;19.60;;;14.57;;
2972;SDS011;1496;51.404;7.232;2022-08-19T07:52:08;17.60;;;14.90;;
2972;SDS011;1496;51.404;7.232;2022-08-19T07:54:35;21.63;;;15.60;;
2972;SDS011;1496;51.404;7.232;2022-08-19T07:57:03;18.10;;;14.43;;
2972;SDS011;1496;51.404;7.232;2022-08-19T07:59:36;19.43;;;16.03;;
2972;SDS011;1496;51.404;7.232;2022-08-19T08:02:02;20.20;;;14.87;;
2972;SDS011;1496;51.404;7.232;2022-08-19T08:04:30;16.37;;;14.73;;
2972;SDS011;1496;51.404;7.232;2022-08-19T08:07:15;17.57;;;14.60;;
2972;SDS011;1496;51.404;7.232;2022-08-19T08:10:00;15.10;;;13.50;;
2972;SDS011;1496;51.404;7.232;2022-08-19T08:12:29;15.70;;;12.60;;
2972;SDS011;1496;51.404;7.232;2022-08-19T08:14:59;18.43;;;12.50;;
2972;SDS011;1496;51.404;7.232;2022-08-19T08:17:29;17.00;;;13.37;;
2972;SDS011;1496;51.404;7.232;2022-08-19T08:19:56;15.47;;;13.30;;
2972;SDS011;1496;51.404;7.232;2022-08-19T08:22:23;18.50;;;14.83;;
2972;SDS011;1496;51.404;7.232;2022-08-19T08:25:09;18.53;;;15.27;;
2972;SDS011;1496;51.404;7.232;2022-08-19T08:27:42;20.90;;;18.07;;
2972;SDS011;1496;51.404;7.232;2022-08-19T08:30:22;21.13;;;18.40;;
2972;SDS011;1496;51.404;7.232;2022-08-19T08:32:49;19.60;;;16.70;;
2972;SDS011;1496;51.404;7.232;2022-08-19T08:38:10;24.27;;;21.20;;
2972;SDS011;1496;51.404;7.232;2022-08-19T08:40:53;20.80;;;18.63;;
2972;SDS011;1496;51.404;7.232;2022-08-19T08:43:45;23.40;;;18.20;;
2972;SDS011;1496;51.404;7.232;2022-08-19T08:46:30;22.30;;;19.33;;
2972;SDS011;1496;51.404;7.232;2022-08-19T08:52:06;23.07;;;20.60;;
2972;SDS011;1496;51.404;7.232;2022-08-19T08:54:41;24.63;;;20.17;;
2972;SDS011;1496;51.404;7.232;2022-08-19T08:57:20;26.10;;;22.27;;
2972;SDS011;1496;51.404;7.232;2022-08-19T08:59:57;29.93;;;25.20;;
2972;SDS011;1496;51.404;7.232;2022-08-19T09:02:26;25.40;;;22.70;;
2972;SDS011;1496;51.404;7.232;2022-08-19T09:04:53;25.50;;;22.80;;
2972;SDS011;1496;51.404;7.232;2022-08-19T09:15:39;25.97;;;23.27;;
2972;SDS011;1496;51.404;7.232;2022-08-19T09:18:10;24.83;;;22.20;;
2972;SDS011;1496;51.404;7.232;2022-08-19T09:20:39;26.17;;;22.70;;
2972;SDS011;1496;51.404;7.232;2022-08-19T09:23:05;27.00;;;23.13;;
2972;SDS011;1496;51.404;7.232;2022-08-19T09:25:31;27.90;;;24.10;;
2972;SDS011;1496;51.404;7.232;2022-08-19T09:28:00;29.23;;;24.50;;
2972;SDS011;1496;51.404;7.232;2022-08-19T09:30:34;25.87;;;23.20;;
2972;SDS011;1496;51.404;7.232;2022-08-19T09:33:06;33.40;;;29.70;;
2972;SDS011;1496;51.404;7.232;2022-08-19T09:35:32;26.13;;;23.43;;
2972;SDS011;1496;51.404;7.232;2022-08-19T09:37:59;33.47;;;28.13;;
2972;SDS011;1496;51.404;7.232;2022-08-19T09:40:29;27.83;;;25.00;;
2972;SDS011;1496;51.404;7.232;2022-08-19T09:42:56;30.10;;;25.67;;
2972;SDS011;1496;51.404;7.232;2022-08-19T09:45:22;29.87;;;25.77;;
2972;SDS011;1496;51.404;7.232;2022-08-19T09:47:49;27.30;;;24.30;;
2972;SDS011;1496;51.404;7.232;2022-08-19T09:50:16;28.33;;;22.83;;
2972;SDS011;1496;51.404;7.232;2022-08-19T09:52:43;25.67;;;20.80;;
2972;SDS011;1496;51.404;7.232;2022-08-19T09:55:12;23.00;;;19.20;;
2972;SDS011;1496;51.404;7.232;2022-08-19T09:57:39;21.33;;;19.13;;
2972;SDS011;1496;51.404;7.232;2022-08-19T10:00:06;20.00;;;16.20;;
2972;SDS011;1496;51.404;7.232;2022-08-19T10:02:37;19.87;;;17.77;;
2972;SDS011;1496;51.404;7.232;2022-08-19T10:05:06;20.47;;;18.30;;
2972;SDS011;1496;51.404;7.232;2022-08-19T10:07:56;21.60;;;19.40;;
2972;SDS011;1496;51.404;7.232;2022-08-19T10:10:26;20.17;;;17.63;;
2972;SDS011;1496;51.404;7.232;2022-08-19T10:12:55;18.63;;;16.57;;
2972;SDS011;1496;51.404;7.232;2022-08-19T10:15:26;18.33;;;16.40;;
2972;SDS011;1496;51.404;7.232;2022-08-19T10:17:55;17.33;;;15.23;;
2972;SDS011;1496;51.404;7.232;2022-08-19T10:20:27;23.70;;;17.97;;
2972;SDS011;1496;51.404;7.232;2022-08-19T10:22:55;18.70;;;16.50;;
2972;SDS011;1496;51.404;7.232;2022-08-19T10:25:25;17.47;;;15.67;;
2972;SDS011;1496;51.404;7.232;2022-08-19T10:27:52;18.00;;;16.20;;
2972;SDS011;1496;51.404;7.232;2022-08-19T10:30:18;16.93;;;14.63;;
2972;SDS011;1496;51.404;7.232;2022-08-19T10:32:44;17.40;;;13.10;;
2972;SDS011;1496;51.404;7.232;2022-08-19T10:35:11;20.23;;;14.73;;
2972;SDS011;1496;51.404;7.232;2022-08-19T10:37:44;16.60;;;12.93;;
2972;SDS011;1496;51.404;7.232;2022-08-19T10:40:10;15.20;;;13.70;;
2972;SDS011;1496;51.404;7.232;2022-08-19T10:42:39;17.63;;;14.70;;
2972;SDS011;1496;51.404;7.232;2022-08-19T10:45:09;24.23;;;14.33;;
2972;SDS011;1496;51.404;7.232;2022-08-19T10:47:38;15.23;;;13.43;;
2972;SDS011;1496;51.404;7.232;2022-08-19T10:50:04;15.00;;;13.20;;
2972;SDS011;1496;51.404;7.232;2022-08-19T10:52:50;15.97;;;14.30;;
2972;SDS011;1496;51.404;7.232;2022-08-19T10:55:19;21.70;;;13.63;;
2972;SDS011;1496;51.404;7.232;2022-08-19T10:58:13;13.23;;;11.97;;
2972;SDS011;1496;51.404;7.232;2022-08-19T11:00:40;12.90;;;11.40;;
2972;SDS011;1496;51.404;7.232;2022-08-19T11:03:08;16.10;;;13.23;;
2972;SDS011;1496;51.404;7.232;2022-08-19T11:05:34;17.40;;;12.20;;
2972;SDS011;1496;51.404;7.232;2022-08-19T11:08:02;15.70;;;13.90;;
2972;SDS011;1496;51.404;7.232;2022-08-19T11:10:37;14.63;;;13.20;;
2972;SDS011;1496;51.404;7.232;2022-08-19T11:13:08;15.70;;;12.60;;
2972;SDS011;1496;51.404;7.232;2022-08-19T11:15:34;15.10;;;13.50;;
2972;SDS011;1496;51.404;7.232;2022-08-19T11:18:00;12.80;;;11.30;;
2972;SDS011;1496;51.404;7.232;2022-08-19T11:20:28;16.33;;;13.50;;
2972;SDS011;1496;51.404;7.232;2022-08-19T11:22:56;14.97;;;13.23;;
2972;SDS011;1496;51.404;7.232;2022-08-19T11:25:25;15.20;;;12.70;;
2972;SDS011;1496;51.404;7.232;2022-08-19T11:28:04;12.73;;;11.50;;
2972;SDS011;1496;51.404;7.232;2022-08-19T11:30:31;16.80;;;15.13;;
2972;SDS011;1496;51.404;7.232;2022-08-19T11:32:57;16.10;;;12.60;;
2972;SDS011;1496;51.404;7.232;2022-08-19T11:35:23;16.50;;;13.13;;
2972;SDS011;1496;51.404;7.232;2022-08-19T11:38:02;13.40;;;12.10;;
2972;SDS011;1496;51.404;7.232;2022-08-19T11:40:36;13.97;;;12.57;;
2972;SDS011;1496;51.404;7.232;2022-08-19T11:43:03;14.80;;;12.00;;
2972;SDS011;1496;51.404;7.232;2022-08-19T11:45:32;13.33;;;11.70;;
2972;SDS011;1496;51.404;7.232;2022-08-19T11:47:58;13.40;;;10.67;;
2972;SDS011;1496;51.404;7.232;2022-08-19T11:50:24;14.00;;;11.60;;
2972;SDS011;1496;51.404;7.232;2022-08-19T11:52:50;13.77;;;11.80;;
2972;SDS011;1496;51.404;7.232;2022-08-19T11:55:19;17.77;;;15.63;;
2972;SDS011;1496;51.404;7.232;2022-08-19T11:57:51;13.93;;;12.63;;
2972;SDS011;1496;51.404;7.232;2022-08-19T12:00:19;18.37;;;16.10;;
2972;SDS011;1496;51.404;7.232;2022-08-19T12:02:46;19.00;;;15.90;;
2972;SDS011;1496;51.404;7.232;2022-08-19T12:05:15;18.53;;;16.20;;
2972;SDS011;1496;51.404;7.232;2022-08-19T12:07:41;16.80;;;14.60;;
2972;SDS011;1496;51.404;7.232;2022-08-19T12:10:08;14.70;;;13.30;;
2972;SDS011;1496;51.404;7.232;2022-08-19T12:12:35;17.50;;;15.70;;
2972;SDS011;1496;51.404;7.232;2022-08-19T12:15:03;14.37;;;12.93;;
2972;SDS011;1496;51.404;7.232;2022-08-19T12:20:21;12.27;;;11.00;;
2972;SDS011;1496;51.404;7.232;2022-08-19T12:22:48;15.30;;;12.33;;
2972;SDS011;1496;51.404;7.232;2022-08-19T12:25:15;13.73;;;12.33;;
2972;SDS011;1496;51.404;7.232;2022-08-19T12:27:45;14.67;;;13.27;;
2972;SDS011;1496;51.404;7.232;2022-08-19T12:30:14;14.30;;;12.90;;
2972;SDS011;1496;51.404;7.232;2022-08-19T12:32:41;18.50;;;14.60;;
2972;SDS011;1496;51.404;7.232;2022-08-19T12:35:07;13.70;;;12.33;;
2972;SDS011;1496;51.404;7.232;2022-08-19T12:37:36;14.83;;;13.40;;
2972;SDS011;1496;51.404;7.232;2022-08-19T12:40:04;12.87;;;11.67;;
2972;SDS011;1496;51.404;7.232;2022-08-19T12:42:30;12.43;;;11.23;;
2972;SDS011;1496;51.404;7.232;2022-08-19T12:44:56;12.50;;;11.00;;
2972;SDS011;1496;51.404;7.232;2022-08-19T12:47:23;11.30;;;10.20;;
2972;SDS011;1496;51.404;7.232;2022-08-19T12:49:51;9.83;;;8.27;;
2972;SDS011;1496;51.404;7.232;2022-08-19T12:52:17;10.43;;;9.43;;
2972;SDS011;1496;51.404;7.232;2022-08-19T12:54:46;11.50;;;9.90;;
2972;SDS011;1496;51.404;7.232;2022-08-19T12:57:12;12.77;;;11.47;;
2972;SDS011;1496;51.404;7.232;2022-08-19T12:59:47;15.23;;;12.10;;
2972;SDS011;1496;51.404;7.232;2022-08-19T13:02:18;10.93;;;9.93;;
2972;SDS011;1496;51.404;7.232;2022-08-19T13:04:45;9.00;;;8.20;;
2972;SDS011;1496;51.404;7.232;2022-08-19T13:07:11;13.30;;;9.93;;
2972;SDS011;1496;51.404;7.232;2022-08-19T13:09:37;11.37;;;9.83;;
2972;SDS011;1496;51.404;7.232;2022-08-19T13:12:03;9.60;;;8.67;;
2972;SDS011;1496;51.404;7.232;2022-08-19T13:14:33;9.17;;;8.37;;
2972;SDS011;1496;51.404;7.232;2022-08-19T13:17:00;9.40;;;8.53;;
2972;SDS011;1496;51.404;7.232;2022-08-19T13:19:26;11.10;;;10.10;;
2972;SDS011;1496;51.404;7.232;2022-08-19T13:21:52;10.57;;;9.57;;
2972;SDS011;1496;51.404;7.232;2022-08-19T13:24:20;10.50;;;9.57;;
2972;SDS011;1496;51.404;7.232;2022-08-19T13:26:46;11.50;;;10.50;;
2972;SDS011;1496;51.404;7.232;2022-08-19T13:29:13;11.43;;;10.43;;
2972;SDS011;1496;51.404;7.232;2022-08-19T13:31:57;11.07;;;10.07;;
2972;SDS011;1496;51.404;7.232;2022-08-19T13:34:52;9.67;;;8.67;;
2972;SDS011;1496;51.404;7.232;2022-08-19T13:37:18;9.10;;;7.80;;
2972;SDS011;1496;51.404;7.232;2022-08-19T13:40:04;8.67;;;7.77;;
2972;SDS011;1496;51.404;7.232;2022-08-19T13:42:32;7.37;;;6.77;;
2972;SDS011;1496;51.404;7.232;2022-08-19T13:45:02;8.93;;;7.90;;
2972;SDS011;1496;51.404;7.232;2022-08-19T13:47:30;8.00;;;7.30;;
2972;SDS011;1496;51.404;7.232;2022-08-19T13:49:59;10.27;;;8.40;;
2972;SDS011;1496;51.404;7.232;2022-08-19T13:52:27;9.90;;;7.97;;
2972;SDS011;1496;51.404;7.232;2022-08-19T13:54:56;8.67;;;7.80;;
2972;SDS011;1496;51.404;7.232;2022-08-19T13:57:23;8.67;;;7.80;;
2972;SDS011;1496;51.404;7.232;2022-08-19T13:59:48;9.13;;;7.03;;
2972;SDS011;1496;51.404;7.232;2022-08-19T14:02:14;8.90;;;6.80;;
2972;SDS011;1496;51.404;7.232;2022-08-19T14:04:40;6.90;;;6.20;;
2972;SDS011;1496;51.404;7.232;2022-08-19T14:07:06;6.93;;;6.17;;
2972;SDS011;1496;51.404;7.232;2022-08-19T14:09:32;5.87;;;5.37;;
2972;SDS011;1496;51.404;7.232;2022-08-19T14:12:04;5.83;;;5.33;;
2972;SDS011;1496;51.404;7.232;2022-08-19T14:14:30;6.73;;;6.00;;
2972;SDS011;1496;51.404;7.232;2022-08-19T14:16:57;8.27;;;5.93;;
2972;SDS011;1496;51.404;7.232;2022-08-19T14:19:23;7.50;;;6.20;;
2972;SDS011;1496;51.404;7.232;2022-08-19T14:21:52;6.70;;;6.10;;
2972;SDS011;1496;51.404;7.232;2022-08-19T14:24:21;6.63;;;5.93;;
2972;SDS011;1496;51.404;7.232;2022-08-19T14:26:48;7.20;;;5.93;;
2972;SDS011;1496;51.404;7.232;2022-08-19T14:29:14;8.00;;;5.67;;
2972;SDS011;1496;51.404;7.232;2022-08-19T14:31:44;7.27;;;6.57;;
2972;SDS011;1496;51.404;7.232;2022-08-19T14:34:10;9.97;;;6.50;;
2972;SDS011;1496;51.404;7.232;2022-08-19T14:36:37;9.17;;;6.50;;
2972;SDS011;1496;51.404;7.232;2022-08-19T14:39:04;8.70;;;5.40;;
2972;SDS011;1496;51.404;7.232;2022-08-19T14:41:30;5.93;;;5.43;;
2972;SDS011;1496;51.404;7.232;2022-08-19T14:43:56;5.70;;;5.20;;
2972;SDS011;1496;51.404;7.232;2022-08-19T14:46:29;8.27;;;6.40;;
2972;SDS011;1496;51.404;7.232;2022-08-19T14:48:57;5.83;;;5.30;;
2972;SDS011;1496;51.404;7.232;2022-08-19T14:51:24;6.83;;;4.80;;
2972;SDS011;1496;51.404;7.232;2022-08-19T14:53:54;6.10;;;5.10;;
2972;SDS011;1496;51.404;7.232;2022-08-19T14:56:22;8.87;;;4.93;;
2972;SDS011;1496;51.404;7.232;2022-08-19T14:58:51;6.73;;;5.20;;
2972;SDS011;1496;51.404;7.232;2022-08-19T15:01:22;7.20;;;5.10;;
2972;SDS011;1496;51.404;7.232;2022-08-19T15:03:49;8.30;;;4.80;;
2972;SDS011;1496;51.404;7.232;2022-08-19T15:06:20;5.60;;;5.10;;
2972;SDS011;1496;51.404;7.232;2022-08-19T15:08:47;6.13;;;5.00;;
2972;SDS011;1496;51.404;7.232;2022-08-19T15:11:15;4.70;;;4.30;;
2972;SDS011;1496;51.404;7.232;2022-08-19T15:13:46;7.40;;;5.80;;
2972;SDS011;1496;51.404;7.232;2022-08-19T15:16:13;7.13;;;5.50;;
2972;SDS011;1496;51.404;7.232;2022-08-19T15:18:46;8.07;;;5.47;;
2972;SDS011;1496;51.404;7.232;2022-08-19T15:21:17;7.63;;;5.73;;
2972;SDS011;1496;51.404;7.232;2022-08-19T15:23:44;7.20;;;5.40;;
2972;SDS011;1496;51.404;7.232;2022-08-19T15:26:11;8.73;;;6.10;;